Time;durP1;ratioP1;P1;durP2;ratioP2;P2;SDS_P1;SDS_P2;PMS_P1;PMS_P2;Temp;Humidity;BMP_temperature;BMP_pressure;BME280_temperature;BME280_humidity;BME280_pressure;Samples;Min_cycle;Max_cycle;Signal;HPM_P1;HPM_P2
2021/08/26 00:06:51;;;;;;;2.25;0.95;;;;;;;;;;4975482;28;20127;-78
2021/08/26 00:09:17;;;;;;;2.15;1.00;;;;;;;;;;4973399;28;20030;-77
2021/08/26 00:11:47;;;;;;;2.50;0.98;;;;;;;;;;4974759;28;20042;-76
2021/08/26 00:14:15;;;;;;;1.48;0.70;;;;;;;;;;4974245;28;20139;-76
2021/08/26 00:16:41;;;;;;;1.52;0.70;;;;;;;;;;4974778;28;20035;-77
2021/08/26 00:19:08;;;;;;;3.42;0.73;;;;;;;;;;4974739;28;20023;-75
2021/08/26 00:21:34;;;;;;;2.88;0.80;;;;;;;;;;4973272;28;20027;-76
2021/08/26 00:24:00;;;;;;;1.60;0.93;;;;;;;;;;4973631;28;20030;-73
2021/08/26 00:26:26;;;;;;;1.60;0.85;;;;;;;;;;4973648;28;20466;-75
2021/08/26 00:28:52;;;;;;;1.80;0.80;;;;;;;;;;4974311;28;20101;-73
2021/08/26 00:31:18;;;;;;;3.08;0.63;;;;;;;;;;4973262;28;20053;-78
2021/08/26 00:33:44;;;;;;;1.58;0.82;;;;;;;;;;4973913;28;20073;-77
2021/08/26 00:36:10;;;;;;;1.77;0.77;;;;;;;;;;4958349;28;20066;-78
2021/08/26 00:38:36;;;;;;;2.70;0.82;;;;;;;;;;4963662;28;20121;-79
2021/08/26 00:41:02;;;;;;;0.95;0.65;;;;;;;;;;4973960;28;20442;-77
2021/08/26 00:43:28;;;;;;;1.77;0.93;;;;;;;;;;4973129;28;20118;-78
2021/08/26 00:45:54;;;;;;;1.67;1.10;;;;;;;;;;4972321;28;20026;-77
2021/08/26 00:48:21;;;;;;;1.40;0.90;;;;;;;;;;4974193;28;20027;-77
2021/08/26 00:50:49;;;;;;;2.10;0.70;;;;;;;;;;4973948;28;20026;-76
2021/08/26 00:53:15;;;;;;;1.80;0.90;;;;;;;;;;4973840;28;20035;-76
2021/08/26 00:55:41;;;;;;;1.73;1.00;;;;;;;;;;4973173;28;20019;-78
2021/08/26 00:58:07;;;;;;;2.28;0.80;;;;;;;;;;4972832;28;20039;-78
2021/08/26 01:00:34;;;;;;;1.45;0.90;;;;;;;;;;4973180;28;20026;-78
2021/08/26 01:03:12;;;;;;;1.73;0.70;;;;;;;;;;4973411;28;20023;-78
2021/08/26 01:05:41;;;;;;;1.20;0.88;;;;;;;;;;4973599;28;20057;-77
2021/08/26 01:08:08;;;;;;;1.27;0.70;;;;;;;;;;4973388;28;20026;-77
2021/08/26 01:10:35;;;;;;;3.13;0.93;;;;;;;;;;4972411;28;20042;-77
2021/08/26 01:13:02;;;;;;;3.70;1.00;;;;;;;;;;4972480;28;20549;-76
2021/08/26 01:15:28;;;;;;;2.53;0.85;;;;;;;;;;4972237;28;20027;-77
2021/08/26 01:17:55;;;;;;;1.67;0.80;;;;;;;;;;4972639;28;20494;-78
2021/08/26 01:20:21;;;;;;;3.63;1.00;;;;;;;;;;4973365;28;20027;-76
2021/08/26 01:22:48;;;;;;;2.15;0.70;;;;;;;;;;4973773;28;20042;-78
2021/08/26 01:25:15;;;;;;;2.05;1.00;;;;;;;;;;4972536;28;20023;-77
2021/08/26 01:27:46;;;;;;;2.75;0.90;;;;;;;;;;4972812;28;20081;-78
2021/08/26 01:30:15;;;;;;;1.67;0.80;;;;;;;;;;4973019;28;20537;-76
2021/08/26 01:32:42;;;;;;;2.58;1.00;;;;;;;;;;4971879;28;20082;-76
2021/08/26 01:35:08;;;;;;;1.10;0.90;;;;;;;;;;4969070;28;20392;-78
2021/08/26 01:37:37;;;;;;;2.08;1.17;;;;;;;;;;4954268;29;20479;-77
2021/08/26 01:40:03;;;;;;;1.98;0.80;;;;;;;;;;4953981;29;20486;-76
2021/08/26 01:42:29;;;;;;;0.98;0.80;;;;;;;;;;4971176;28;20093;-78
2021/08/26 01:44:56;;;;;;;2.55;1.38;;;;;;;;;;4973153;28;20023;-77
2021/08/26 01:47:22;;;;;;;2.10;1.38;;;;;;;;;;4972602;28;20035;-76
2021/08/26 01:49:49;;;;;;;1.67;1.00;;;;;;;;;;4971925;28;20058;-77
2021/08/26 01:52:16;;;;;;;1.98;1.10;;;;;;;;;;4971816;28;20037;-77
2021/08/26 01:54:44;;;;;;;2.47;1.17;;;;;;;;;;4973346;28;20033;-78
2021/08/26 01:57:10;;;;;;;2.17;1.08;;;;;;;;;;4970820;28;20015;-75
2021/08/26 01:59:36;;;;;;;2.67;1.30;;;;;;;;;;4972725;28;20031;-76
2021/08/26 02:02:02;;;;;;;2.42;1.30;;;;;;;;;;4972049;28;20023;-75
2021/08/26 02:04:28;;;;;;;2.72;1.15;;;;;;;;;;4972752;28;20041;-76
2021/08/26 02:06:54;;;;;;;1.95;1.40;;;;;;;;;;4954978;28;20075;-76
2021/08/26 02:09:20;;;;;;;2.10;1.30;;;;;;;;;;4953557;29;20439;-76
2021/08/26 02:11:46;;;;;;;1.42;1.08;;;;;;;;;;4954405;28;20023;-76
2021/08/26 02:14:12;;;;;;;2.38;1.40;;;;;;;;;;4970952;28;20419;-77
2021/08/26 02:16:38;;;;;;;3.00;1.58;;;;;;;;;;4970707;28;20483;-78
2021/08/26 02:19:04;;;;;;;2.63;1.48;;;;;;;;;;4970630;28;20034;-78
2021/08/26 02:21:30;;;;;;;2.38;1.30;;;;;;;;;;4971648;28;20422;-77
2021/08/26 02:23:57;;;;;;;6.75;1.65;;;;;;;;;;4971027;28;20041;-77
2021/08/26 02:26:23;;;;;;;1.45;1.17;;;;;;;;;;4971610;28;20091;-74
2021/08/26 02:28:49;;;;;;;2.30;1.80;;;;;;;;;;4970569;28;20043;-77
2021/08/26 02:31:15;;;;;;;2.25;1.40;;;;;;;;;;4971336;28;20387;-76
2021/08/26 02:33:41;;;;;;;2.67;1.55;;;;;;;;;;4971354;28;20042;-75
2021/08/26 02:36:08;;;;;;;2.90;1.70;;;;;;;;;;4962971;28;20086;-77
2021/08/26 02:38:34;;;;;;;2.78;1.33;;;;;;;;;;4953238;29;20427;-77
2021/08/26 02:41:00;;;;;;;2.05;1.50;;;;;;;;;;4969728;28;20029;-74
2021/08/26 02:43:26;;;;;;;2.90;1.60;;;;;;;;;;4971881;28;20035;-78
2021/08/26 02:45:52;;;;;;;2.00;1.38;;;;;;;;;;4971024;28;20485;-77
2021/08/26 02:48:18;;;;;;;2.58;1.65;;;;;;;;;;4970571;28;20041;-77
2021/08/26 02:50:44;;;;;;;2.47;1.33;;;;;;;;;;4972103;28;20023;-78
2021/08/26 02:53:10;;;;;;;2.88;1.65;;;;;;;;;;4971573;28;20130;-77
2021/08/26 02:55:36;;;;;;;2.47;1.30;;;;;;;;;;4971536;28;20532;-78
2021/08/26 02:58:02;;;;;;;2.40;1.70;;;;;;;;;;4971847;28;20114;-78
2021/08/26 03:00:28;;;;;;;2.75;1.77;;;;;;;;;;4971628;28;20434;-79
2021/08/26 03:02:54;;;;;;;2.63;2.00;;;;;;;;;;4971105;28;20031;-77
2021/08/26 03:05:20;;;;;;;3.10;1.65;;;;;;;;;;4971402;28;20023;-77
2021/08/26 03:07:46;;;;;;;1.92;1.17;;;;;;;;;;4971953;28;20086;-79
2021/08/26 03:10:12;;;;;;;2.03;1.25;;;;;;;;;;4972027;28;20042;-78
2021/08/26 03:12:38;;;;;;;2.63;1.52;;;;;;;;;;4965134;28;20069;-77
2021/08/26 03:15:04;;;;;;;2.78;1.35;;;;;;;;;;4972044;28;20387;-79
2021/08/26 03:17:30;;;;;;;2.13;1.30;;;;;;;;;;4971582;28;20483;-77
2021/08/26 03:19:56;;;;;;;1.95;1.40;;;;;;;;;;4971975;28;20034;-77
2021/08/26 03:22:22;;;;;;;2.53;1.50;;;;;;;;;;4971803;28;20034;-77
2021/08/26 03:24:48;;;;;;;2.35;1.33;;;;;;;;;;4972158;28;20468;-79
2021/08/26 03:27:14;;;;;;;2.33;1.27;;;;;;;;;;4971117;28;20388;-76
2021/08/26 03:29:40;;;;;;;3.25;1.75;;;;;;;;;;4973657;28;20030;-73
2021/08/26 03:32:06;;;;;;;2.30;1.38;;;;;;;;;;4973913;28;20111;-77
2021/08/26 03:34:32;;;;;;;2.28;1.30;;;;;;;;;;4974830;28;20035;-75
2021/08/26 03:36:59;;;;;;;2.22;1.60;;;;;;;;;;4976033;28;20054;-76
2021/08/26 03:39:24;;;;;;;2.83;1.30;;;;;;;;;;4975372;28;20042;-73
2021/08/26 03:41:51;;;;;;;3.20;1.60;;;;;;;;;;4975049;28;20039;-73
2021/08/26 03:44:17;;;;;;;2.75;1.60;;;;;;;;;;4973427;28;20077;-76
2021/08/26 03:46:43;;;;;;;3.22;1.50;;;;;;;;;;4975539;28;20058;-73
2021/08/26 03:49:08;;;;;;;2.33;1.48;;;;;;;;;;4974410;28;20045;-74
2021/08/26 03:51:34;;;;;;;2.33;1.60;;;;;;;;;;4975085;28;20070;-76
2021/08/26 03:54:00;;;;;;;2.75;1.55;;;;;;;;;;4975717;28;20038;-74
2021/08/26 03:56:27;;;;;;;3.00;1.55;;;;;;;;;;4975030;28;20127;-77
2021/08/26 03:58:52;;;;;;;2.05;1.48;;;;;;;;;;4974837;28;20031;-77
2021/08/26 04:01:18;;;;;;;2.35;1.52;;;;;;;;;;4975178;28;20069;-75
2021/08/26 04:03:44;;;;;;;2.83;1.50;;;;;;;;;;4974173;28;20402;-77
2021/08/26 04:06:11;;;;;;;1.77;1.20;;;;;;;;;;4966829;28;20031;-75
2021/08/26 04:08:37;;;;;;;2.65;1.50;;;;;;;;;;4955877;29;20024;-76
2021/08/26 04:11:03;;;;;;;3.00;1.60;;;;;;;;;;4964597;28;20023;-74
2021/08/26 04:13:29;;;;;;;2.55;1.58;;;;;;;;;;4974326;28;20031;-79
2021/08/26 04:15:55;;;;;;;3.00;1.50;;;;;;;;;;4974727;28;20033;-77
2021/08/26 04:18:21;;;;;;;2.53;1.55;;;;;;;;;;4973585;28;20023;-79
2021/08/26 04:20:47;;;;;;;2.35;1.48;;;;;;;;;;4974771;28;20066;-77
2021/08/26 04:23:13;;;;;;;3.22;2.05;;;;;;;;;;4974170;28;20030;-77
2021/08/26 04:25:39;;;;;;;2.42;1.48;;;;;;;;;;4974958;28;20050;-79
2021/08/26 04:28:05;;;;;;;2.28;1.40;;;;;;;;;;4973569;28;20031;-78
2021/08/26 04:30:31;;;;;;;3.30;1.40;;;;;;;;;;4975182;28;20043;-77
2021/08/26 04:32:58;;;;;;;2.50;1.25;;;;;;;;;;4973976;28;20094;-78
2021/08/26 04:35:24;;;;;;;2.10;1.15;;;;;;;;;;4969449;28;20122;-79
2021/08/26 04:37:49;;;;;;;2.50;1.42;;;;;;;;;;4955055;29;20127;-79
2021/08/26 04:40:15;;;;;;;2.55;1.40;;;;;;;;;;4970182;28;20027;-79
2021/08/26 04:42:41;;;;;;;1.58;0.98;;;;;;;;;;4974069;28;20031;-79
2021/08/26 04:45:08;;;;;;;2.17;1.20;;;;;;;;;;4974362;28;20095;-78
2021/08/26 04:47:35;;;;;;;1.67;1.20;;;;;;;;;;4974250;28;20406;-79
2021/08/26 04:50:01;;;;;;;3.28;1.25;;;;;;;;;;4973671;28;20029;-80
2021/08/26 04:52:27;;;;;;;2.78;1.50;;;;;;;;;;4974152;28;20070;-79
2021/08/26 04:54:53;;;;;;;2.08;1.30;;;;;;;;;;4972448;28;20117;-77
2021/08/26 04:57:19;;;;;;;1.63;1.17;;;;;;;;;;4973286;28;20150;-76
2021/08/26 04:59:45;;;;;;;2.90;1.33;;;;;;;;;;4973536;28;20031;-76
2021/08/26 05:02:11;;;;;;;2.47;1.20;;;;;;;;;;4973514;28;20475;-78
2021/08/26 05:04:37;;;;;;;2.97;1.45;;;;;;;;;;4973013;28;20042;-78
2021/08/26 05:07:03;;;;;;;2.45;1.20;;;;;;;;;;4959195;28;20023;-77
2021/08/26 05:09:29;;;;;;;3.58;1.55;;;;;;;;;;4963043;28;20085;-78
2021/08/26 05:11:57;;;;;;;2.00;1.38;;;;;;;;;;4973730;28;20081;-78
2021/08/26 05:14:23;;;;;;;1.70;1.00;;;;;;;;;;4973514;28;20494;-77
2021/08/26 05:16:49;;;;;;;2.42;1.30;;;;;;;;;;4973921;28;20023;-77
2021/08/26 05:19:15;;;;;;;2.55;0.98;;;;;;;;;;4972936;28;20431;-76
2021/08/26 05:21:41;;;;;;;2.55;1.23;;;;;;;;;;4973842;28;20034;-77
2021/08/26 05:24:07;;;;;;;2.55;1.00;;;;;;;;;;4973672;28;20023;-75
2021/08/26 05:26:33;;;;;;;1.92;1.23;;;;;;;;;;4972938;28;20034;-78
2021/08/26 05:28:59;;;;;;;1.92;1.27;;;;;;;;;;4972933;28;20487;-77
2021/08/26 05:31:25;;;;;;;3.65;1.20;;;;;;;;;;4961865;28;20031;-77
2021/08/26 05:33:51;;;;;;;1.92;0.98;;;;;;;;;;4973690;28;20038;-78
2021/08/26 05:36:17;;;;;;;2.20;1.30;;;;;;;;;;4956085;28;20035;-79
2021/08/26 05:38:43;;;;;;;2.97;1.20;;;;;;;;;;4965110;28;20035;-79
2021/08/26 05:41:09;;;;;;;2.33;1.27;;;;;;;;;;4972806;28;20486;-77
2021/08/26 05:43:35;;;;;;;1.80;1.40;;;;;;;;;;4972346;28;20038;-76
2021/08/26 05:46:05;;;;;;;1.58;0.90;;;;;;;;;;4973393;28;20419;-78
2021/08/26 05:48:31;;;;;;;2.55;1.30;;;;;;;;;;4973221;28;20027;-78
2021/08/26 05:50:57;;;;;;;1.90;1.08;;;;;;;;;;4971178;28;20053;-80
2021/08/26 05:53:23;;;;;;;2.42;1.27;;;;;;;;;;4972776;28;20483;-79
2021/08/26 05:55:50;;;;;;;1.83;1.15;;;;;;;;;;4972749;28;20026;-80
2021/08/26 05:58:16;;;;;;;1.42;0.90;;;;;;;;;;4972383;28;20034;-79
2021/08/26 06:00:42;;;;;;;1.85;1.05;;;;;;;;;;4971694;28;20043;-76
2021/08/26 06:03:08;;;;;;;1.50;0.75;;;;;;;;;;4972519;28;20456;-74
2021/08/26 06:05:34;;;;;;;4.43;1.15;;;;;;;;;;4971883;28;20054;-75
2021/08/26 06:08:00;;;;;;;1.80;1.25;;;;;;;;;;4953888;29;20427;-78
2021/08/26 06:10:26;;;;;;;2.33;1.17;;;;;;;;;;4961351;28;20027;-77
2021/08/26 06:12:52;;;;;;;2.03;1.02;;;;;;;;;;4971086;28;20504;-77
2021/08/26 06:15:18;;;;;;;4.85;1.50;;;;;;;;;;4971432;28;20113;-74
2021/08/26 06:17:44;;;;;;;6.32;1.60;;;;;;;;;;4972506;28;20474;-74
2021/08/26 06:20:12;;;;;;;5.20;1.80;;;;;;;;;;4971745;28;20023;-74
2021/08/26 06:22:38;;;;;;;6.13;1.90;;;;;;;;;;4972773;28;20027;-75
2021/08/26 06:25:05;;;;;;;4.97;1.38;;;;;;;;;;4970879;28;20181;-75
2021/08/26 06:27:31;;;;;;;5.53;1.65;;;;;;;;;;4972273;28;20042;-74
2021/08/26 06:29:57;;;;;;;3.55;1.63;;;;;;;;;;4972451;28;20475;-75
2021/08/26 06:32:23;;;;;;;10.65;1.80;;;;;;;;;;4971727;28;20038;-75
2021/08/26 06:34:49;;;;;;;44.92;18.38;;;;;;;;;;4970248;28;20031;-76
2021/08/26 06:37:15;;;;;;;34.20;9.25;;;;;;;;;;4971049;28;20458;-76
2021/08/26 06:39:41;;;;;;;29.45;10.07;;;;;;;;;;4971840;28;20101;-77
2021/08/26 06:42:07;;;;;;;30.80;11.10;;;;;;;;;;4971901;28;20069;-76
2021/08/26 06:44:33;;;;;;;26.08;10.05;;;;;;;;;;4972123;28;20023;-75
2021/08/26 06:46:59;;;;;;;22.85;9.27;;;;;;;;;;4972690;28;20062;-76
2021/08/26 06:49:25;;;;;;;26.90;9.60;;;;;;;;;;4972237;28;20058;-74
2021/08/26 06:51:51;;;;;;;26.08;9.23;;;;;;;;;;4971070;28;20034;-74
2021/08/26 06:54:17;;;;;;;27.35;9.10;;;;;;;;;;4972240;28;20442;-78
2021/08/26 06:56:43;;;;;;;28.02;9.35;;;;;;;;;;4972402;28;20029;-75
2021/08/26 06:59:09;;;;;;;21.13;7.57;;;;;;;;;;4972152;28;20034;-73
2021/08/26 07:01:35;;;;;;;16.08;7.90;;;;;;;;;;4971372;28;20031;-75
2021/08/26 07:04:01;;;;;;;20.45;7.32;;;;;;;;;;4973255;28;20023;-74
2021/08/26 07:06:28;;;;;;;17.23;6.30;;;;;;;;;;4975189;28;20057;-74
2021/08/26 07:08:54;;;;;;;16.50;5.68;;;;;;;;;;4976132;28;20082;-74
2021/08/26 07:11:20;;;;;;;19.90;5.72;;;;;;;;;;4974737;28;20495;-74
2021/08/26 07:13:46;;;;;;;14.73;5.03;;;;;;;;;;4974848;28;20030;-75
2021/08/26 07:16:12;;;;;;;15.52;5.70;;;;;;;;;;4974553;28;20562;-77
2021/08/26 07:18:38;;;;;;;14.35;5.90;;;;;;;;;;4974852;28;20027;-76
2021/08/26 07:21:04;;;;;;;16.65;5.32;;;;;;;;;;4975798;28;20403;-76
2021/08/26 07:23:30;;;;;;;14.05;5.45;;;;;;;;;;4976333;28;20030;-76
2021/08/26 07:25:58;;;;;;;17.80;5.82;;;;;;;;;;4975920;28;20055;-76
2021/08/26 07:28:24;;;;;;;13.02;5.20;;;;;;;;;;4975687;28;20483;-76
2021/08/26 07:30:50;;;;;;;14.98;4.82;;;;;;;;;;4975941;28;20468;-76
2021/08/26 07:33:16;;;;;;;12.75;3.92;;;;;;;;;;4973965;28;20041;-76
2021/08/26 07:35:42;;;;;;;13.88;5.03;;;;;;;;;;4974528;28;20050;-76
2021/08/26 07:38:08;;;;;;;11.57;4.25;;;;;;;;;;4975533;28;20027;-74
2021/08/26 07:40:34;;;;;;;11.75;4.25;;;;;;;;;;4975845;28;20153;-75
2021/08/26 07:43:00;;;;;;;15.38;4.78;;;;;;;;;;4975839;28;20042;-74
2021/08/26 07:45:26;;;;;;;12.35;4.03;;;;;;;;;;4975403;28;20030;-73
2021/08/26 07:47:53;;;;;;;13.10;4.40;;;;;;;;;;4975731;28;20050;-74
2021/08/26 07:50:21;;;;;;;12.23;4.10;;;;;;;;;;4975314;28;20027;-74
2021/08/26 07:52:47;;;;;;;9.75;3.72;;;;;;;;;;4975385;28;20030;-74
2021/08/26 07:55:13;;;;;;;11.63;4.03;;;;;;;;;;4975178;28;20395;-74
2021/08/26 07:57:39;;;;;;;12.35;3.45;;;;;;;;;;4975416;28;20034;-74
2021/08/26 08:00:05;;;;;;;13.15;4.38;;;;;;;;;;4975246;28;20023;-74
2021/08/26 08:02:31;;;;;;;10.52;3.67;;;;;;;;;;4974291;28;20027;-76
2021/08/26 08:04:57;;;;;;;12.20;3.78;;;;;;;;;;4975651;28;20054;-76
2021/08/26 08:07:23;;;;;;;9.93;3.42;;;;;;;;;;4974985;28;20062;-75
2021/08/26 08:09:49;;;;;;;11.95;4.22;;;;;;;;;;4975235;28;20483;-76
2021/08/26 08:12:15;;;;;;;10.60;3.65;;;;;;;;;;4974768;28;20101;-76
2021/08/26 08:14:44;;;;;;;10.57;3.72;;;;;;;;;;4975048;28;20102;-76
2021/08/26 08:17:11;;;;;;;13.10;4.07;;;;;;;;;;4974823;28;20029;-76
2021/08/26 08:19:39;;;;;;;9.38;3.20;;;;;;;;;;4975166;28;20165;-76
2021/08/26 08:22:05;;;;;;;9.82;3.85;;;;;;;;;;4974770;28;20475;-76
2021/08/26 08:24:31;;;;;;;12.35;3.85;;;;;;;;;;4975274;28;20158;-76
2021/08/26 08:26:57;;;;;;;10.57;3.92;;;;;;;;;;4975175;28;20046;-76
2021/08/26 08:29:23;;;;;;;10.25;3.35;;;;;;;;;;4974604;28;20475;-76
2021/08/26 08:31:49;;;;;;;13.30;4.45;;;;;;;;;;4974712;28;20035;-77
2021/08/26 08:34:15;;;;;;;12.55;3.35;;;;;;;;;;4974458;28;20525;-76
2021/08/26 08:36:42;;;;;;;9.30;3.58;;;;;;;;;;4974765;28;20031;-76
2021/08/26 08:39:08;;;;;;;9.90;3.78;;;;;;;;;;4974486;28;20077;-77
2021/08/26 08:41:34;;;;;;;10.50;3.35;;;;;;;;;;4973133;28;20039;-76
2021/08/26 08:44:01;;;;;;;10.43;3.72;;;;;;;;;;4973613;28;20019;-76
2021/08/26 08:46:28;;;;;;;13.82;3.50;;;;;;;;;;4973561;28;20075;-75
2021/08/26 08:48:56;;;;;;;8.68;3.05;;;;;;;;;;4974482;28;20023;-76
2021/08/26 08:51:22;;;;;;;8.75;3.42;;;;;;;;;;4974250;28;20324;-76
2021/08/26 08:53:49;;;;;;;9.60;3.13;;;;;;;;;;4973088;28;20090;-74
2021/08/26 08:56:16;;;;;;;10.20;3.15;;;;;;;;;;4974045;28;20054;-76
2021/08/26 08:58:42;;;;;;;8.93;2.78;;;;;;;;;;4974352;28;20082;-76
2021/08/26 09:01:09;;;;;;;9.70;3.05;;;;;;;;;;4974001;28;20098;-77
2021/08/26 09:03:38;;;;;;;8.90;2.70;;;;;;;;;;4974174;28;20023;-76
2021/08/26 09:06:05;;;;;;;12.30;3.70;;;;;;;;;;4972896;28;20444;-76
2021/08/26 09:08:31;;;;;;;8.38;2.95;;;;;;;;;;4974389;28;20372;-76
2021/08/26 09:11:18;;;;;;;8.50;2.97;;;;;;;;;;4974442;28;20062;-76
2021/08/26 09:13:45;;;;;;;7.88;2.65;;;;;;;;;;4972717;28;20060;-76
2021/08/26 09:16:12;;;;;;;10.27;3.05;;;;;;;;;;4973756;28;20034;-76
2021/08/26 09:18:38;;;;;;;9.35;2.97;;;;;;;;;;4973937;28;20027;-76
2021/08/26 09:21:07;;;;;;;6.93;2.50;;;;;;;;;;4973604;28;20023;-74
2021/08/26 09:23:53;;;;;;;9.40;2.75;;;;;;;;;;4973857;28;20026;-74
2021/08/26 09:26:19;;;;;;;;;;;;;;;;;;4973560;28;20031;-74
2021/08/26 09:28:45;;;;;;;9.38;3.10;;;;;;;;;;4973645;28;20354;-74
2021/08/26 09:31:30;;;;;;;10.60;3.30;;;;;;;;;;4973494;28;20109;-74
2021/08/26 09:34:06;;;;;;;11.68;3.70;;;;;;;;;;4973706;28;20441;-75
2021/08/26 09:36:34;;;;;;;10.00;2.97;;;;;;;;;;4973638;28;20050;-74
2021/08/26 09:39:00;;;;;;;11.00;3.20;;;;;;;;;;4973852;28;20038;-75
2021/08/26 09:41:35;;;;;;;9.88;2.75;;;;;;;;;;4973132;28;20031;-76
2021/08/26 09:44:08;;;;;;;7.45;2.83;;;;;;;;;;4973804;28;20030;-75
2021/08/26 09:46:35;;;;;;;6.32;2.92;;;;;;;;;;4973402;28;20066;-74
2021/08/26 09:49:08;;;;;;;8.02;2.70;;;;;;;;;;4972426;28;20132;-76
2021/08/26 09:51:35;;;;;;;6.63;2.47;;;;;;;;;;4972052;28;20058;-76
2021/08/26 09:54:01;;;;;;;7.43;2.70;;;;;;;;;;4973541;28;20081;-75
2021/08/26 09:56:40;;;;;;;8.40;2.83;;;;;;;;;;4972189;28;20030;-75
2021/08/26 09:59:06;;;;;;;9.52;2.25;;;;;;;;;;4972955;28;20031;-75
2021/08/26 10:01:36;;;;;;;5.10;2.05;;;;;;;;;;4973271;28;20566;-74
2021/08/26 10:04:03;;;;;;;9.63;2.28;;;;;;;;;;4972904;28;20023;-74
2021/08/26 10:06:29;;;;;;;9.35;2.85;;;;;;;;;;4973412;28;20031;-74
2021/08/26 10:08:57;;;;;;;8.93;2.58;;;;;;;;;;4972933;28;20026;-74
2021/08/26 10:11:23;;;;;;;8.80;2.95;;;;;;;;;;4971415;28;20398;-75
2021/08/26 10:13:49;;;;;;;8.40;2.17;;;;;;;;;;4972909;28;20447;-74
2021/08/26 10:16:16;;;;;;;11.13;2.75;;;;;;;;;;4971412;28;20415;-75
2021/08/26 10:18:42;;;;;;;8.48;2.08;;;;;;;;;;4972868;28;20451;-75
2021/08/26 10:21:09;;;;;;;6.25;2.15;;;;;;;;;;4972612;28;20035;-76
2021/08/26 10:23:42;;;;;;;7.18;2.28;;;;;;;;;;4972717;28;20034;-75
2021/08/26 10:26:12;;;;;;;6.78;2.42;;;;;;;;;;4971274;28;20483;-76
2021/08/26 10:28:41;;;;;;;10.23;2.22;;;;;;;;;;4972701;28;20026;-74
2021/08/26 10:31:23;;;;;;;8.50;2.08;;;;;;;;;;4972483;28;20070;-75
2021/08/26 10:33:49;;;;;;;8.10;2.58;;;;;;;;;;4971325;28;20058;-76
2021/08/26 10:36:15;;;;;;;8.60;2.40;;;;;;;;;;4972356;28;20533;-76
2021/08/26 10:38:41;;;;;;;10.10;2.45;;;;;;;;;;4971822;28;20379;-75
2021/08/26 10:41:20;;;;;;;8.88;2.88;;;;;;;;;;4972144;28;20114;-76
2021/08/26 10:43:54;;;;;;;7.47;2.22;;;;;;;;;;4972400;28;20372;-76
2021/08/26 10:46:40;;;;;;;5.57;1.80;;;;;;;;;;4972329;28;20030;-76
2021/08/26 10:49:06;;;;;;;;;;;;;;;;;;4971255;28;20043;-76
2021/08/26 10:51:43;;;;;;;5.68;1.90;;;;;;;;;;4971236;28;19906;-74
2021/08/26 10:54:24;;;;;;;8.63;2.33;;;;;;;;;;4972165;28;20126;-75
2021/08/26 10:56:50;;;;;;;6.78;2.08;;;;;;;;;;4972258;28;20027;-75
2021/08/26 10:59:30;;;;;;;6.30;2.05;;;;;;;;;;4972078;28;20046;-74
2021/08/26 11:01:56;;;;;;;7.10;2.10;;;;;;;;;;4972364;28;20041;-73
2021/08/26 11:04:27;;;;;;;5.82;2.22;;;;;;;;;;4972138;28;20089;-74
2021/08/26 11:06:53;;;;;;;7.15;2.15;;;;;;;;;;4972414;28;20023;-74
2021/08/26 11:09:23;;;;;;;7.82;2.25;;;;;;;;;;4971983;28;20455;-74
2021/08/26 11:11:53;;;;;;;7.70;2.10;;;;;;;;;;4972220;28;20062;-75
2021/08/26 11:14:19;;;;;;;7.28;2.33;;;;;;;;;;4972120;28;20387;-73
2021/08/26 11:16:49;;;;;;;8.23;2.20;;;;;;;;;;4972266;28;20023;-76
2021/08/26 11:19:15;;;;;;;8.48;2.72;;;;;;;;;;4971973;28;20482;-76
2021/08/26 11:21:44;;;;;;;5.43;1.70;;;;;;;;;;4972203;28;20030;-76
2021/08/26 11:24:13;;;;;;;9.07;2.38;;;;;;;;;;4971802;28;20038;-76
2021/08/26 11:26:43;;;;;;;6.68;2.10;;;;;;;;;;4972163;28;20550;-76
2021/08/26 11:29:35;;;;;;;6.15;1.45;;;;;;;;;;4971892;28;20025;-76
2021/08/26 11:32:03;;;;;;;4.80;1.50;;;;;;;;;;4970398;28;20044;-76
2021/08/26 11:34:34;;;;;;;4.63;1.58;;;;;;;;;;4972327;28;20399;-76
2021/08/26 11:37:00;;;;;;;5.15;1.70;;;;;;;;;;4972290;28;20027;-76
2021/08/26 11:39:26;;;;;;;5.60;1.63;;;;;;;;;;4971791;28;20089;-76
2021/08/26 11:41:52;;;;;;;5.90;1.52;;;;;;;;;;4971906;28;20031;-76
2021/08/26 11:44:18;;;;;;;2.72;1.30;;;;;;;;;;4970477;28;20030;-76
2021/08/26 11:46:44;;;;;;;4.93;1.25;;;;;;;;;;4971960;28;20049;-76
2021/08/26 11:49:10;;;;;;;3.92;1.50;;;;;;;;;;4971569;28;20030;-76
2021/08/26 11:51:37;;;;;;;4.90;1.33;;;;;;;;;;4975006;28;20058;-76
2021/08/26 11:54:13;;;;;;;8.15;1.73;;;;;;;;;;4975270;28;20058;-75
2021/08/26 11:56:49;;;;;;;5.60;1.08;;;;;;;;;;4975525;28;20438;-76
2021/08/26 11:59:26;;;;;;;6.43;1.85;;;;;;;;;;4975161;28;20085;-75
2021/08/26 12:02:12;;;;;;;4.90;1.45;;;;;;;;;;4975299;28;20083;-75
2021/08/26 12:04:38;;;;;;;;;;;;;;;;;;4975670;28;20023;-76
2021/08/26 12:07:04;;;;;;;4.43;1.17;;;;;;;;;;4973767;28;20363;-76
2021/08/26 12:09:30;;;;;;;6.28;1.55;;;;;;;;;;4975510;28;20078;-76
2021/08/26 12:11:56;;;;;;;3.80;1.20;;;;;;;;;;4974997;28;22422;-76
2021/08/26 12:14:22;;;;;;;4.72;1.20;;;;;;;;;;4974874;28;20026;-77
2021/08/26 12:16:48;;;;;;;8.45;1.55;;;;;;;;;;4975112;28;20023;-76
2021/08/26 12:19:15;;;;;;;4.90;1.55;;;;;;;;;;4974832;28;20509;-77
2021/08/26 12:21:41;;;;;;;4.30;1.50;;;;;;;;;;4975018;28;20090;-76
2021/08/26 12:24:09;;;;;;;4.40;1.10;;;;;;;;;;4974696;28;20438;-76
2021/08/26 12:26:38;;;;;;;5.10;1.13;;;;;;;;;;4973599;28;20030;-76
2021/08/26 12:29:04;;;;;;;4.15;1.27;;;;;;;;;;4974552;28;20046;-76
2021/08/26 12:31:31;;;;;;;4.47;1.45;;;;;;;;;;4973856;28;20103;-76
2021/08/26 12:34:05;;;;;;;6.97;1.30;;;;;;;;;;4973774;28;20065;-77
2021/08/26 12:36:33;;;;;;;5.85;1.08;;;;;;;;;;4973773;28;20469;-75
2021/08/26 12:38:59;;;;;;;5.63;1.25;;;;;;;;;;4974863;28;20031;-76
2021/08/26 12:41:25;;;;;;;3.72;1.10;;;;;;;;;;4974220;28;20391;-76
2021/08/26 12:43:53;;;;;;;4.32;1.45;;;;;;;;;;4974710;28;20030;-75
2021/08/26 12:46:23;;;;;;;5.90;1.90;;;;;;;;;;4974384;28;20031;-74
2021/08/26 12:48:50;;;;;;;5.97;1.63;;;;;;;;;;4974672;28;20022;-74
2021/08/26 12:51:26;;;;;;;4.15;1.10;;;;;;;;;;4974257;28;20110;-74
2021/08/26 12:53:52;;;;;;;;;;;;;;;;;;4974885;28;20129;-74
2021/08/26 12:56:21;;;;;;;6.35;1.60;;;;;;;;;;4972901;28;19961;-74
2021/08/26 12:58:54;;;;;;;5.70;1.40;;;;;;;;;;4974459;28;20038;-74
2021/08/26 13:01:23;;;;;;;5.13;1.42;;;;;;;;;;4973331;28;20038;-73
2021/08/26 13:03:50;;;;;;;5.70;1.10;;;;;;;;;;4973955;28;20037;-75
2021/08/26 13:06:32;;;;;;;3.67;0.93;;;;;;;;;;4973835;28;20032;-74
2021/08/26 13:08:58;;;;;;;3.47;1.00;;;;;;;;;;4974607;28;20038;-75
2021/08/26 13:11:24;;;;;;;8.32;1.48;;;;;;;;;;4973988;28;20058;-74
2021/08/26 13:13:54;;;;;;;6.35;1.90;;;;;;;;;;4974090;28;20039;-74
2021/08/26 13:16:20;;;;;;;5.60;2.17;;;;;;;;;;4973860;28;20070;-75
2021/08/26 13:18:46;;;;;;;4.88;1.17;;;;;;;;;;4973951;28;20558;-75
2021/08/26 13:21:14;;;;;;;3.25;1.10;;;;;;;;;;4973725;28;20101;-74
2021/08/26 13:23:42;;;;;;;5.68;1.42;;;;;;;;;;4972642;28;20037;-74
2021/08/26 13:26:08;;;;;;;2.50;1.15;;;;;;;;;;4973799;28;20055;-74
2021/08/26 13:28:34;;;;;;;4.30;1.15;;;;;;;;;;4973816;28;20065;-75
2021/08/26 13:31:00;;;;;;;4.80;1.10;;;;;;;;;;4974044;28;20033;-75
2021/08/26 13:33:26;;;;;;;2.95;0.90;;;;;;;;;;4973311;28;20051;-74
2021/08/26 13:35:52;;;;;;;4.50;1.02;;;;;;;;;;4973624;28;20026;-74
2021/08/26 13:38:18;;;;;;;3.97;1.23;;;;;;;;;;4972038;28;20121;-74
2021/08/26 13:40:44;;;;;;;3.75;1.45;;;;;;;;;;4973505;28;20023;-74
2021/08/26 13:43:10;;;;;;;6.07;1.30;;;;;;;;;;4973158;28;20121;-74
2021/08/26 13:45:36;;;;;;;4.55;1.20;;;;;;;;;;4971647;28;20039;-76
2021/08/26 13:48:03;;;;;;;3.83;1.17;;;;;;;;;;4973185;28;20038;-74
2021/08/26 13:50:30;;;;;;;4.68;1.02;;;;;;;;;;4973765;28;20049;-74
2021/08/26 13:52:56;;;;;;;3.45;1.30;;;;;;;;;;4973310;28;20462;-74
2021/08/26 13:55:22;;;;;;;2.55;0.98;;;;;;;;;;4973070;28;20102;-74
2021/08/26 14:04:14;;;;;;;5.43;1.20;;;;;;;;;;4973267;28;20505;-74
2021/08/26 14:06:40;;;;;;;3.65;1.33;;;;;;;;;;4973090;28;20395;-74
2021/08/26 14:09:06;;;;;;;4.97;1.17;;;;;;;;;;4972774;28;20082;-74
2021/08/26 14:11:32;;;;;;;6.88;1.17;;;;;;;;;;4971793;28;20023;-74
2021/08/26 14:13:59;;;;;;;4.07;1.17;;;;;;;;;;4973086;28;20039;-74
2021/08/26 14:16:25;;;;;;;6.00;2.55;;;;;;;;;;4971468;28;20073;-74
2021/08/26 14:18:51;;;;;;;4.10;1.30;;;;;;;;;;4972856;28;20031;-74
2021/08/26 14:21:17;;;;;;;4.35;1.35;;;;;;;;;;4972484;28;20030;-74
2021/08/26 14:23:44;;;;;;;4.25;1.42;;;;;;;;;;4972716;28;20030;-74
2021/08/26 14:26:11;;;;;;;3.63;1.30;;;;;;;;;;4971286;28;20027;-74
2021/08/26 14:28:37;;;;;;;4.93;1.20;;;;;;;;;;4972731;28;20022;-74
2021/08/26 14:31:03;;;;;;;5.10;1.65;;;;;;;;;;4972520;28;20561;-75
2021/08/26 14:33:29;;;;;;;6.82;1.50;;;;;;;;;;4972812;28;20096;-74
2021/08/26 14:35:55;;;;;;;4.30;1.55;;;;;;;;;;4972589;28;20097;-74
2021/08/26 14:38:21;;;;;;;10.05;1.67;;;;;;;;;;4972441;28;20027;-74
2021/08/26 14:40:47;;;;;;;6.85;1.95;;;;;;;;;;4972446;28;20499;-74
2021/08/26 14:43:13;;;;;;;6.97;2.17;;;;;;;;;;4972261;28;20047;-73
2021/08/26 14:45:39;;;;;;;9.15;1.75;;;;;;;;;;4971106;28;20492;-73
2021/08/26 14:48:07;;;;;;;4.35;1.95;;;;;;;;;;4972142;28;20042;-73
2021/08/26 14:50:35;;;;;;;5.97;1.45;;;;;;;;;;4972532;28;20023;-74
2021/08/26 14:53:04;;;;;;;9.40;1.80;;;;;;;;;;4972568;28;20039;-74